Time;durP1;ratioP1;P1;durP2;ratioP2;P2;SDS_P1;SDS_P2;PMS_P1;PMS_P2;Temp;Humidity;BMP_temperature;BMP_pressure;BME280_temperature;BME280_humidity;BME280_pressure;Samples;Min_cycle;Max_cycle;Signal;HPM_P1;HPM_P2
2022/03/13 00:00:10;;;;;;;;;;;;;;;1.13;65.13;100694.53;5048949;28;1541;-86
2022/03/13 00:02:35;;;;;;;;;;;;;;;1.06;64.97;100693.72;5062259;28;1188;-88
2022/03/13 00:05:01;;;;;;;;;;;;;;;0.79;64.68;100682.22;5054768;28;1404;-87
2022/03/13 00:07:28;;;;;;;;;;;;;;;0.75;65.66;100679.13;5061086;28;2333;-87
2022/03/13 00:09:53;;;;;;;;;;;;;;;0.55;65.78;100677.50;5043383;28;1475;-88
2022/03/13 00:12:26;;;;;;;;;;;;;;;0.61;65.10;100682.88;5046025;28;1283;-87
2022/03/13 00:14:51;;;;;;;;;;;;;;;0.64;64.70;100676.25;5050538;28;1300;-87
2022/03/13 00:17:17;;;;;;;;;;;;;;;0.44;65.60;100686.22;5045565;28;1225;-86
2022/03/13 00:19:43;;;;;;;;;;;;;;;0.26;67.35;100685.00;5045545;28;1594;-85
2022/03/13 00:22:09;;;;;;;;;;;;;;;0.04;66.95;100642.38;5058319;28;789;-86
2022/03/13 00:24:34;;;;;;;;;;;;;;;0.34;66.58;100671.31;5039067;28;1383;-86
2022/03/13 00:27:01;;;;;;;;;;;;;;;0.26;66.84;100676.94;5039217;28;1965;-86
2022/03/13 00:29:26;;;;;;;;;;;;;;;-0.08;68.52;100687.91;5052284;28;1486;-84
2022/03/13 00:31:51;;;;;;;;;;;;;;;0.11;67.43;100687.09;5077727;28;990;-87
2022/03/13 00:34:17;;;;;;;;;;;;;;;0.43;65.83;100684.56;5077176;28;1189;-86
2022/03/13 00:36:42;;;;;;;;;;;;;;;0.52;66.07;100688.69;5040453;28;1500;-87
2022/03/13 00:39:08;;;;;;;;;;;;;;;0.50;66.10;100691.63;5039275;28;1345;-86
2022/03/13 00:41:34;;;;;;;;;;;;;;;0.39;65.66;100689.56;5039939;28;1315;-87
2022/03/13 00:43:59;;;;;;;;;;;;;;;0.56;65.81;100693.47;5049487;28;1498;-86
2022/03/13 00:46:25;;;;;;;;;;;;;;;0.47;65.87;100699.28;5059358;28;853;-87
2022/03/13 00:48:50;;;;;;;;;;;;;;;0.51;67.04;100695.16;5046821;28;1898;-87
2022/03/13 00:51:15;;;;;;;;;;;;;;;0.48;65.98;100691.00;5039344;28;1307;-87
2022/03/13 00:53:41;;;;;;;;;;;;;;;0.25;66.91;100687.94;5066423;28;1446;-87
2022/03/13 00:56:07;;;;;;;;;;;;;;;0.08;68.31;100689.38;5059249;28;1299;-87
2022/03/13 00:58:32;;;;;;;;;;;;;;;0.25;68.35;100683.38;5048894;28;1498;-86
2022/03/13 01:00:58;;;;;;;;;;;;;;;0.17;68.34;100678.19;5038229;28;873;-86
2022/03/13 01:03:36;;;;;;;;;;;;;;;0.13;68.24;100678.81;5046942;28;1291;-86
2022/03/13 01:06:01;;;;;;;;;;;;;;;0.13;68.70;100678.81;5058060;28;1284;-85
2022/03/13 01:08:27;;;;;;;;;;;;;;;-0.13;68.00;100672.41;5048025;28;1902;-85
2022/03/13 01:10:53;;;;;;;;;;;;;;;-0.26;67.78;100674.28;5056735;28;932;-86
2022/03/13 01:13:19;;;;;;;;;;;;;;;-0.14;67.44;100678.81;5038578;28;1300;-86
2022/03/13 01:15:46;;;;;;;;;;;;;;;-0.36;67.68;100660.41;5038549;28;1204;-88
2022/03/13 01:18:11;;;;;;;;;;;;;;;-0.13;67.42;100658.13;5044174;28;1533;-86
2022/03/13 01:20:36;;;;;;;;;;;;;;;-0.03;66.37;100661.22;5038989;28;992;-87
2022/03/13 01:23:01;;;;;;;;;;;;;;;-0.09;66.68;100654.84;5040596;28;1383;-87
2022/03/13 01:25:27;;;;;;;;;;;;;;;-0.24;67.78;100651.50;5059034;28;1278;-87
2022/03/13 01:27:52;;;;;;;;;;;;;;;-0.28;68.67;100652.94;5059561;28;1989;-88
2022/03/13 01:30:17;;;;;;;;;;;;;;;-0.23;68.79;100653.16;5039481;28;1486;-87
2022/03/13 01:32:43;;;;;;;;;;;;;;;-0.59;69.06;100656.19;5045498;28;1352;-87
2022/03/13 01:35:08;;;;;;;;;;;;;;;-0.42;68.63;100654.78;5077491;28;1200;-87
2022/03/13 01:37:34;;;;;;;;;;;;;;;-0.35;68.31;100656.66;5054389;28;1463;-87
2022/03/13 01:40:00;;;;;;;;;;;;;;;-0.70;68.79;100656.00;5043410;28;1435;-88
2022/03/13 01:42:26;;;;;;;;;;;;;;;-0.53;68.41;100641.97;5049960;28;1534;-86
2022/03/13 01:44:52;;;;;;;;;;;;;;;-0.40;68.40;100641.97;5044419;28;1436;-87
2022/03/13 01:47:17;;;;;;;;;;;;;;;-0.25;68.05;100639.06;5057634;28;1930;-86
2022/03/13 01:49:43;;;;;;;;;;;;;;;-0.28;69.19;100633.28;5047824;28;1774;-87
2022/03/13 01:52:08;;;;;;;;;;;;;;;-0.32;69.16;100642.78;5038420;28;1004;-86
2022/03/13 01:54:33;;;;;;;;;;;;;;;-0.45;69.60;100640.94;5038051;28;1367;-86
2022/03/13 01:57:00;;;;;;;;;;;;;;;-0.40;69.74;100633.06;5038900;28;1316;-87
2022/03/13 01:59:26;;;;;;;;;;;;;;;-0.52;69.09;100638.25;5038240;28;1235;-86
2022/03/13 02:01:51;;;;;;;;;;;;;;;-0.66;69.92;100628.50;5037509;28;1347;-86
2022/03/13 02:04:22;;;;;;;;;;;;;;;-0.69;69.58;100628.91;5055548;28;1284;-87
2022/03/13 02:06:47;;;;;;;;;;;;;;;-0.74;69.78;100628.69;5053495;28;1454;-88
2022/03/13 02:09:12;;;;;;;;;;;;;;;-0.71;69.74;100627.47;5061910;28;1882;-87
2022/03/13 02:11:40;;;;;;;;;;;;;;;-0.77;69.87;100629.09;5050013;28;1411;-86
2022/03/13 02:14:06;;;;;;;;;;;;;;;-0.86;69.98;100620.41;5042302;28;1257;-85
2022/03/13 02:16:31;;;;;;;;;;;;;;;-0.91;70.50;100622.03;5042289;28;1451;-86
2022/03/13 02:18:57;;;;;;;;;;;;;;;-0.97;70.63;100628.22;5041867;28;1268;-86
2022/03/13 02:21:24;;;;;;;;;;;;;;;-0.83;69.85;100627.22;5041495;28;1204;-87
2022/03/13 02:23:49;;;;;;;;;;;;;;;-0.82;69.13;100620.81;5041675;28;1196;-86
2022/03/13 02:26:14;;;;;;;;;;;;;;;-0.76;68.88;100620.81;5041004;28;1370;-86
2022/03/13 02:28:42;;;;;;;;;;;;;;;-0.82;69.51;100615.44;5059598;28;1890;-86
2022/03/13 02:31:12;;;;;;;;;;;;;;;-0.95;70.78;100623.47;5041732;28;1341;-87
2022/03/13 02:33:38;;;;;;;;;;;;;;;-0.91;70.86;100622.03;5060962;28;1356;-86
2022/03/13 02:36:05;;;;;;;;;;;;;;;-0.80;69.86;100624.13;5060707;28;1189;-87
2022/03/13 02:38:30;;;;;;;;;;;;;;;-0.81;69.28;100617.94;5052980;28;1474;-86
2022/03/13 02:40:56;;;;;;;;;;;;;;;-0.80;69.80;100616.06;5052419;28;1475;-87
2022/03/13 02:43:22;;;;;;;;;;;;;;;-0.93;70.33;100618.69;5078388;28;1336;-87
2022/03/13 02:45:47;;;;;;;;;;;;;;;-0.86;70.12;100620.41;5058603;28;1510;-87
2022/03/13 02:48:12;;;;;;;;;;;;;;;-0.86;71.01;100611.50;5045684;28;1871;-86
2022/03/13 02:50:38;;;;;;;;;;;;;;;-0.96;70.56;100619.13;5051086;28;1573;-87
2022/03/13 02:53:04;;;;;;;;;;;;;;;-0.92;70.61;100606.94;5061609;28;1323;-87
2022/03/13 02:55:30;;;;;;;;;;;;;;;-0.96;72.19;100605.69;5061405;28;1285;-87
2022/03/13 02:57:55;;;;;;;;;;;;;;;-1.04;71.48;100613.94;5061558;28;1343;-87
2022/03/13 03:00:21;;;;;;;;;;;;;;;-1.16;71.32;100605.63;5056173;28;1447;-87
2022/03/13 03:02:48;;;;;;;;;;;;;;;-1.23;70.67;100602.94;5041796;28;1352;-88
2022/03/13 03:05:14;;;;;;;;;;;;;;;-1.39;71.77;100595.22;5041152;28;1293;-86
2022/03/13 03:07:39;;;;;;;;;;;;;;;-1.46;71.57;100604.28;5042884;28;1894;-87
2022/03/13 03:10:05;;;;;;;;;;;;;;;-1.44;71.73;100600.34;5061096;28;1158;-87
2022/03/13 03:12:30;;;;;;;;;;;;;;;-1.20;71.18;100607.91;5044067;28;1216;-87
2022/03/13 03:14:56;;;;;;;;;;;;;;;-1.30;71.10;100612.81;5042651;28;1259;-88
2022/03/13 03:17:21;;;;;;;;;;;;;;;-1.22;71.17;100601.91;5041942;28;1339;-88
2022/03/13 03:19:46;;;;;;;;;;;;;;;-1.33;71.98;100602.47;5042437;28;1334;-87
2022/03/13 03:22:12;;;;;;;;;;;;;;;-1.33;71.87;100605.16;5043474;28;1566;-88
2022/03/13 03:24:37;;;;;;;;;;;;;;;-1.37;71.94;100603.91;5042528;28;1509;-86
2022/03/13 03:27:03;;;;;;;;;;;;;;;-1.48;71.96;100603.66;5062975;28;1883;-86
2022/03/13 03:29:28;;;;;;;;;;;;;;;-1.47;72.05;100599.94;5061658;28;1278;-88
2022/03/13 03:31:54;;;;;;;;;;;;;;;-1.57;71.20;100597.63;5082071;28;817;-88
2022/03/13 03:34:21;;;;;;;;;;;;;;;-1.62;71.11;100594.72;5045974;28;1548;-87
2022/03/13 03:36:56;;;;;;;;;;;;;;;-1.55;70.78;100595.56;5043872;28;1362;-88
2022/03/13 03:39:22;;;;;;;;;;;;;;;-1.60;70.78;100598.00;5057225;28;1479;-89
2022/03/13 03:41:48;;;;;;;;;;;;;;;-1.55;71.08;100595.56;5081035;28;1043;-88
2022/03/13 03:44:14;;;;;;;;;;;;;;;-1.59;71.38;100586.25;5043263;28;1628;-87
2022/03/13 03:46:40;;;;;;;;;;;;;;;-1.61;71.71;100597.16;5061577;28;1771;-88
2022/03/13 03:49:05;;;;;;;;;;;;;;;-1.68;71.06;100599.00;5081634;28;1975;-89
2022/03/13 03:51:30;;;;;;;;;;;;;;;-1.75;71.48;100603.50;5065301;28;1267;-89
2022/03/13 03:53:56;;;;;;;;;;;;;;;-1.70;72.79;100598.34;5065318;28;1494;-87
2022/03/13 03:56:21;;;;;;;;;;;;;;;-1.64;71.96;100602.97;5068310;28;1256;-87
2022/03/13 03:58:46;;;;;;;;;;;;;;;-1.73;72.05;100596.09;5066526;28;1478;-87
2022/03/13 04:01:11;;;;;;;;;;;;;;;-2.21;72.52;100548.78;5042028;28;1115;-87
2022/03/13 04:03:36;;;;;;;;;;;;;;;-1.91;72.42;100593.94;5057123;28;1562;-88
2022/03/13 04:06:01;;;;;;;;;;;;;;;-1.83;72.00;100603.66;5060917;28;1287;-86
2022/03/13 04:08:29;;;;;;;;;;;;;;;-1.81;72.13;100603.47;5060651;28;1885;-87
2022/03/13 04:10:54;;;;;;;;;;;;;;;-1.79;72.09;100606.78;5060891;28;1412;-87
2022/03/13 04:13:19;;;;;;;;;;;;;;;-1.87;72.31;100609.63;5060382;28;1227;-85
2022/03/13 04:15:45;;;;;;;;;;;;;;;-1.94;72.36;100607.72;5062212;28;1193;-87
2022/03/13 04:18:10;;;;;;;;;;;;;;;-2.04;72.41;100601.88;5051325;28;1521;-87
2022/03/13 04:20:36;;;;;;;;;;;;;;;-2.00;72.35;100611.19;5041135;28;917;-86
2022/03/13 04:23:03;;;;;;;;;;;;;;;-1.96;72.79;100603.59;5040210;28;1619;-87
2022/03/13 04:25:28;;;;;;;;;;;;;;;-2.23;72.62;100605.25;5062366;22;3735;-87
2022/03/13 04:27:57;;;;;;;;;;;;;;;-2.41;73.15;100605.72;5061159;28;1886;-87
2022/03/13 04:30:23;;;;;;;;;;;;;;;-2.31;73.63;100598.19;5045511;28;1418;-87
2022/03/13 04:32:48;;;;;;;;;;;;;;;-2.22;73.91;100598.88;5055193;28;1483;-87
2022/03/13 04:35:13;;;;;;;;;;;;;;;-2.24;72.83;100598.22;5064196;28;1381;-87
2022/03/13 04:37:39;;;;;;;;;;;;;;;-2.43;73.21;100604.25;5082442;28;1533;-87
2022/03/13 04:40:04;;;;;;;;;;;;;;;-2.58;73.48;100599.00;5065374;28;972;-87
2022/03/13 04:42:29;;;;;;;;;;;;;;;-2.44;73.32;100602.59;5063446;28;1451;-87
2022/03/13 04:44:54;;;;;;;;;;;;;;;-2.28;73.21;100596.94;5062648;28;1311;-86
2022/03/13 04:47:19;;;;;;;;;;;;;;;-2.51;73.56;100597.19;5061476;28;1894;-86
2022/03/13 04:49:45;;;;;;;;;;;;;;;-2.47;73.50;100595.78;5061266;28;1537;-86
2022/03/13 04:52:10;;;;;;;;;;;;;;;-2.47;73.56;100598.47;5062198;28;1431;-87
2022/03/13 04:54:35;;;;;;;;;;;;;;;-2.24;73.10;100600.91;5061085;28;1286;-86
2022/03/13 04:57:00;;;;;;;;;;;;;;;-2.29;72.93;100601.47;5062301;28;1533;-87
2022/03/13 04:59:25;;;;;;;;;;;;;;;-2.15;72.11;100605.13;5063301;28;1309;-86
2022/03/13 05:01:52;;;;;;;;;;;;;;;-2.06;72.76;100597.75;5062811;28;1070;-86
2022/03/13 05:04:17;;;;;;;;;;;;;;;-2.12;73.17;100596.66;5062914;28;1188;-86
2022/03/13 05:06:45;;;;;;;;;;;;;;;-2.22;73.81;100601.56;5062564;28;1489;-86
2022/03/13 05:09:10;;;;;;;;;;;;;;;-2.34;73.36;100597.75;5061724;28;1945;-87
2022/03/13 05:11:35;;;;;;;;;;;;;;;-2.40;73.63;100601.22;5058870;28;1198;-86
2022/03/13 05:14:00;;;;;;;;;;;;;;;-2.44;73.37;100607.97;5059118;28;1055;-87
2022/03/13 05:16:25;;;;;;;;;;;;;;;-2.41;73.42;100597.69;5057411;28;1277;-87
2022/03/13 05:18:50;;;;;;;;;;;;;;;-2.47;74.34;100603.00;5057012;28;1195;-86
2022/03/13 05:21:17;;;;;;;;;;;;;;;-2.61;73.73;100601.22;5056570;28;1203;-86
2022/03/13 05:23:42;;;;;;;;;;;;;;;-2.65;73.84;100597.28;5056281;28;1250;-86
2022/03/13 05:26:07;;;;;;;;;;;;;;;-2.81;74.12;100609.09;5055694;28;1220;-85
2022/03/13 05:28:33;;;;;;;;;;;;;;;-2.76;74.51;100601.28;5038013;28;1910;-86
2022/03/13 05:30:58;;;;;;;;;;;;;;;-2.65;74.10;100614.19;5059182;28;1507;-86
2022/03/13 05:33:23;;;;;;;;;;;;;;;-2.65;74.06;100600.78;5076651;28;801;-86
2022/03/13 05:35:48;;;;;;;;;;;;;;;-2.77;74.46;100611.16;5060114;28;1427;-86
2022/03/13 05:38:14;;;;;;;;;;;;;;;-2.78;74.42;100601.47;5060041;28;1364;-86
2022/03/13 05:40:40;;;;;;;;;;;;;;;-2.75;74.25;100601.09;5061205;28;1238;-86
2022/03/13 05:43:06;;;;;;;;;;;;;;;-2.71;73.92;100615.75;5063368;28;1255;-86
2022/03/13 05:45:32;;;;;;;;;;;;;;;-2.65;73.60;100619.53;5063505;28;1494;-86
2022/03/13 05:47:58;;;;;;;;;;;;;;;-2.60;74.14;100610.91;5063423;28;1939;-86
2022/03/13 05:50:25;;;;;;;;;;;;;;;-2.64;74.12;100617.69;5067194;28;1482;-85
2022/03/13 05:52:51;;;;;;;;;;;;;;;-2.72;74.21;100611.41;5063856;28;1482;-86
2022/03/13 05:55:17;;;;;;;;;;;;;;;-2.69;74.51;100619.06;5062441;28;1283;-85
2022/03/13 05:57:43;;;;;;;;;;;;;;;-2.54;74.71;100612.81;5062854;28;1223;-85
2022/03/13 06:00:09;;;;;;;;;;;;;;;-2.50;74.36;100598.03;5062960;28;1169;-85
2022/03/13 06:02:36;;;;;;;;;;;;;;;-2.58;74.07;100601.66;5061998;28;1192;-86
2022/03/13 06:05:02;;;;;;;;;;;;;;;-2.48;74.76;100609.38;5062764;28;1279;-86
2022/03/13 06:07:27;;;;;;;;;;;;;;;-2.50;74.22;100611.41;5066475;28;1959;-86
2022/03/13 06:09:54;;;;;;;;;;;;;;;-2.50;73.67;100614.09;5065378;28;1576;-86
2022/03/13 06:12:19;;;;;;;;;;;;;;;-2.37;73.57;100615.03;5082465;28;1538;-86
2022/03/13 06:14:44;;;;;;;;;;;;;;;-2.25;73.08;100617.19;5081420;28;1344;-87
2022/03/13 06:17:09;;;;;;;;;;;;;;;-2.26;73.06;100616.38;5082724;28;1580;-86
2022/03/13 06:19:39;;;;;;;;;;;;;;;-2.34;73.29;100619.19;5065202;28;1266;-86
2022/03/13 06:22:04;;;;;;;;;;;;;;;-2.34;73.33;100617.34;5065835;28;1565;-86
2022/03/13 06:24:32;;;;;;;;;;;;;;;-2.38;73.89;100617.91;5064055;28;1196;-86
2022/03/13 06:26:57;;;;;;;;;;;;;;;-2.38;74.41;100617.91;5062634;28;1196;-86
2022/03/13 06:29:22;;;;;;;;;;;;;;;-2.33;74.20;100620.84;5079907;28;1870;-86
2022/03/13 06:31:48;;;;;;;;;;;;;;;-2.27;74.63;100612.03;5061930;28;1467;-86
2022/03/13 06:34:13;;;;;;;;;;;;;;;-2.17;74.33;100615.19;5062500;28;1174;-86
2022/03/13 06:36:39;;;;;;;;;;;;;;;-2.15;74.46;100618.53;5060674;28;1272;-86
2022/03/13 06:39:04;;;;;;;;;;;;;;;-2.07;74.30;100621.06;5078642;28;872;-87
2022/03/13 06:41:29;;;;;;;;;;;;;;;-2.04;74.32;100617.97;5059045;28;1160;-86
2022/03/13 06:43:54;;;;;;;;;;;;;;;-1.99;74.25;100623.59;5060595;28;1219;-86
2022/03/13 06:46:20;;;;;;;;;;;;;;;-1.87;73.30;100609.63;5055842;28;1348;-87
2022/03/13 06:48:45;;;;;;;;;;;;;;;-1.73;73.22;100614.03;5060698;28;1897;-87
2022/03/13 06:51:10;;;;;;;;;;;;;;;-1.77;73.08;100615.44;5051308;28;1380;-86
2022/03/13 06:53:35;;;;;;;;;;;;;;;-1.68;74.08;100619.63;5060785;28;1249;-87
2022/03/13 06:56:01;;;;;;;;;;;;;;;-1.64;74.80;100619.06;5060659;28;1349;-86
2022/03/13 06:58:26;;;;;;;;;;;;;;;-1.51;73.32;100620.97;5053418;28;1333;-85
2022/03/13 07:00:52;;;;;;;;;;;;;;;-1.42;75.31;100621.63;5060641;28;1317;-86
2022/03/13 07:03:20;;;;;;;;;;;;;;;-1.38;75.26;100620.22;5060766;28;1243;-88
2022/03/13 07:05:46;;;;;;;;;;;;;;;-1.39;74.61;100631.97;5060979;28;1347;-88
2022/03/13 07:08:12;;;;;;;;;;;;;;;-1.38;73.69;100629.09;5077835;28;1890;-88
2022/03/13 07:10:38;;;;;;;;;;;;;;;-1.32;71.16;100625.59;5060872;28;1381;-88
2022/03/13 07:13:04;;;;;;;;;;;;;;;-1.16;71.05;100629.81;5077133;28;1088;-88
2022/03/13 07:15:29;;;;;;;;;;;;;;;-1.05;72.56;100636.47;5076733;28;1243;-88
2022/03/13 07:17:55;;;;;;;;;;;;;;;-0.95;72.28;100636.91;5057426;28;1359;-88
2022/03/13 07:20:20;;;;;;;;;;;;;;;-0.83;71.20;100640.66;5056730;28;1238;-88
2022/03/13 07:22:45;;;;;;;;;;;;;;;-0.66;70.89;100638.41;5056307;28;1323;-88
2022/03/13 07:25:11;;;;;;;;;;;;;;;-0.48;69.47;100641.34;5042243;28;1565;-86
2022/03/13 07:27:37;;;;;;;;;;;;;;;-0.41;68.57;100637.63;5060502;28;1898;-88
2022/03/13 07:30:03;;;;;;;;;;;;;;;-0.28;67.88;100636.81;5059851;28;1149;-88
2022/03/13 07:32:28;;;;;;;;;;;;;;;-0.18;68.61;100639.09;5059782;28;1180;-88
2022/03/13 07:34:53;;;;;;;;;;;;;;;-0.10;71.63;100641.56;5059392;28;1341;-88
2022/03/13 07:37:18;;;;;;;;;;;;;;;-0.05;70.66;100644.47;5060927;28;1211;-88
2022/03/13 07:39:47;;;;;;;;;;;;;;;0.13;70.25;100635.75;5060069;28;1208;-88
2022/03/13 07:42:12;;;;;;;;;;;;;;;0.18;68.25;100635.94;5059800;28;1227;-88
2022/03/13 07:44:38;;;;;;;;;;;;;;;0.26;67.05;100636.56;5059816;28;1334;-87
2022/03/13 07:47:03;;;;;;;;;;;;;;;0.35;67.45;100629.91;5059744;28;1951;-87
2022/03/13 07:49:28;;;;;;;;;;;;;;;0.46;67.81;100630.31;5061053;28;1156;-87
2022/03/13 07:51:54;;;;;;;;;;;;;;;0.57;66.75;100629.66;5058050;28;1332;-87
2022/03/13 07:54:20;;;;;;;;;;;;;;;0.62;65.97;100627.97;5057599;28;1365;-87
2022/03/13 07:56:45;;;;;;;;;;;;;;;0.72;65.27;100633.75;5057883;28;1277;-86
2022/03/13 07:59:10;;;;;;;;;;;;;;;0.84;65.27;100631.22;5057560;28;1257;-87
2022/03/13 08:01:37;;;;;;;;;;;;;;;0.94;64.03;100634.25;5075856;28;790;-86
2022/03/13 08:04:04;;;;;;;;;;;;;;;1.01;64.36;100635.09;5057844;28;1161;-86
2022/03/13 08:06:29;;;;;;;;;;;;;;;1.09;63.33;100632.13;5058400;28;1656;-86
2022/03/13 08:09:02;;;;;;;;;;;;;;;1.16;62.34;100625.88;5073259;28;1894;-86
2022/03/13 08:11:34;;;;;;;;;;;;;;;1.20;62.43;100635.16;5055142;28;1357;-86
2022/03/13 08:13:59;;;;;;;;;;;;;;;1.27;62.43;100633.28;5056822;28;1262;-87
2022/03/13 08:16:24;;;;;;;;;;;;;;;1.36;61.70;100632.00;5050978;28;1391;-87
2022/03/13 08:18:49;;;;;;;;;;;;;;;1.48;60.63;100635.63;5047419;28;1357;-87
2022/03/13 08:21:16;;;;;;;;;;;;;;;1.58;59.07;100633.28;5037034;28;1385;-87
2022/03/13 08:23:41;;;;;;;;;;;;;;;1.66;58.62;100627.63;5036793;28;1323;-87
2022/03/13 08:26:06;;;;;;;;;;;;;;;1.75;58.33;100620.06;5055478;28;1289;-87
2022/03/13 08:28:32;;;;;;;;;;;;;;;1.88;57.71;100619.97;5053705;28;1963;-87
2022/03/13 08:30:58;;;;;;;;;;;;;;;1.96;56.63;100616.19;5045959;28;1721;-86
2022/03/13 08:33:23;;;;;;;;;;;;;;;2.05;55.76;100618.34;5056475;28;1271;-87
2022/03/13 08:35:48;;;;;;;;;;;;;;;2.27;54.95;100616.91;5074437;28;1640;-87
2022/03/13 08:38:13;;;;;;;;;;;;;;;2.38;54.04;100619.94;5055578;28;1425;-87
2022/03/13 08:40:39;;;;;;;;;;;;;;;2.39;53.37;100621.53;5055295;28;1619;-86
2022/03/13 08:43:05;;;;;;;;;;;;;;;2.51;52.79;100625.16;5056105;28;1287;-86
2022/03/13 08:45:31;;;;;;;;;;;;;;;2.70;51.61;100617.91;5056783;28;1415;-87
2022/03/13 08:47:56;;;;;;;;;;;;;;;2.85;50.42;100612.91;5053134;28;1890;-87
2022/03/13 08:50:22;;;;;;;;;;;;;;;3.01;48.01;100609.59;5056930;28;1301;-86
2022/03/13 08:52:47;;;;;;;;;;;;;;;3.20;45.67;100618.50;5074823;28;781;-87
2022/03/13 08:55:14;;;;;;;;;;;;;;;3.38;44.29;100613.88;5056749;28;1322;-87
2022/03/13 08:57:42;;;;;;;;;;;;;;;3.42;44.55;100617.75;5057164;28;1357;-87
2022/03/13 09:00:10;;;;;;;;;;;;;;;3.38;44.64;100607.63;5057307;28;1321;-86
2022/03/13 09:02:35;;;;;;;;;;;;;;;3.37;43.62;100622.19;5057017;28;1234;-87
2022/03/13 09:05:00;;;;;;;;;;;;;;;3.41;43.47;100613.38;5056714;28;1313;-87
2022/03/13 09:07:25;;;;;;;;;;;;;;;3.54;43.62;100615.06;5056705;28;1898;-87
2022/03/13 09:09:50;;;;;;;;;;;;;;;3.68;43.04;100604.84;5053174;28;1238;-87
2022/03/13 09:12:17;;;;;;;;;;;;;;;3.74;42.41;100607.44;5054814;28;809;-87
2022/03/13 09:14:42;;;;;;;;;;;;;;;3.73;42.72;100602.28;5052533;28;1284;-87
2022/03/13 09:17:07;;;;;;;;;;;;;;;3.88;41.24;100605.38;5060739;28;1195;-86
2022/03/13 09:19:32;;;;;;;;;;;;;;;3.91;42.37;100596.78;5056650;28;1333;-87
2022/03/13 09:21:57;;;;;;;;;;;;;;;3.98;42.46;100592.06;5057042;28;1215;-87
2022/03/13 09:24:23;;;;;;;;;;;;;;;4.08;42.10;100589.59;5073754;28;1161;-86
2022/03/13 09:26:48;;;;;;;;;;;;;;;4.14;41.79;100587.84;5056790;28;1337;-87
2022/03/13 09:29:13;;;;;;;;;;;;;;;4.22;41.11;100590.19;5056904;28;1981;-87
2022/03/13 09:31:38;;;;;;;;;;;;;;;4.31;41.24;100582.53;5056821;28;1304;-86
2022/03/13 09:34:04;;;;;;;;;;;;;;;4.40;41.07;100589.22;5057407;28;1298;-86
2022/03/13 09:36:29;;;;;;;;;;;;;;;4.40;40.72;100583.81;5074489;28;1307;-86
2022/03/13 09:38:54;;;;;;;;;;;;;;;4.54;41.05;100587.91;5057330;28;1277;-87
2022/03/13 09:41:20;;;;;;;;;;;;;;;4.61;40.91;100576.91;5057255;28;888;-86
2022/03/13 09:43:45;;;;;;;;;;;;;;;4.70;39.45;100580.91;5075215;28;999;-87
2022/03/13 09:46:11;;;;;;;;;;;;;;;4.77;38.30;100566.16;5057446;28;1446;-87
2022/03/13 09:48:36;;;;;;;;;;;;;;;4.79;38.73;100561.31;5057169;28;1945;-87
2022/03/13 09:51:04;;;;;;;;;;;;;;;4.92;39.14;100571.91;5074670;28;781;-87
2022/03/13 09:53:29;;;;;;;;;;;;;;;5.10;38.78;100568.16;5056482;28;1081;-86
2022/03/13 09:55:55;;;;;;;;;;;;;;;5.07;38.95;100570.53;5057054;28;1323;-87
2022/03/13 09:58:20;;;;;;;;;;;;;;;5.08;38.69;100566.75;5040618;28;1584;-87
2022/03/13 10:00:45;;;;;;;;;;;;;;;5.06;38.58;100569.69;5037226;28;1080;-86
2022/03/13 10:03:11;;;;;;;;;;;;;;;5.16;37.69;100572.63;5036734;28;1274;-87
2022/03/13 10:05:44;;;;;;;;;;;;;;;5.22;37.44;100568.09;5065567;28;1541;-87
2022/03/13 10:08:10;;;;;;;;;;;;;;;5.28;37.08;100557.06;5074531;28;1893;-87
2022/03/13 10:10:49;;;;;;;;;;;;;;;5.47;36.57;100560.41;5074730;28;888;-87
2022/03/13 10:13:15;;;;;;;;;;;;;;;5.52;37.85;100557.78;5056198;28;1151;-87
2022/03/13 10:15:41;;;;;;;;;;;;;;;5.44;37.21;100560.09;5073371;28;1182;-87
2022/03/13 10:18:25;;;;;;;;;;;;;;;5.65;36.48;100554.72;5074444;28;1158;-87
2022/03/13 10:20:51;;;;;;;;;;;;;;;5.73;36.03;100556.22;5074266;28;899;-87
2022/03/13 10:23:19;;;;;;;;;;;;;;;5.71;36.60;100564.59;5055906;28;1200;-87
2022/03/13 10:25:45;;;;;;;;;;;;;;;5.78;36.28;100569.91;5081373;23;2073;-84
2022/03/13 10:28:10;;;;;;;;;;;;;;;5.79;36.47;100563.38;5108436;28;1938;-84
2022/03/13 10:30:36;;;;;;;;;;;;;;;5.83;36.52;100559.09;5108290;28;1046;-83
2022/03/13 10:33:02;;;;;;;;;;;;;;;5.91;37.09;100560.59;5090144;28;1299;-83
2022/03/13 10:35:28;;;;;;;;;;;;;;;6.01;37.25;100558.88;5090053;28;1341;-83
2022/03/13 10:37:53;;;;;;;;;;;;;;;6.06;36.98;100552.66;5077173;28;1508;-84
2022/03/13 10:40:24;;;;;;;;;;;;;;;5.96;35.87;100564.22;5086712;28;1446;-84
2022/03/13 10:42:50;;;;;;;;;;;;;;;5.90;37.03;100556.22;5082235;28;896;-86
2022/03/13 10:45:36;;;;;;;;;;;;;;;6.08;35.78;100554.06;5083186;28;1240;-83
2022/03/13 10:48:15;;;;;;;;;;;;;;;6.14;37.01;100538.66;5086593;28;1931;-83
2022/03/13 10:50:44;;;;;;;;;;;;;;;6.21;36.71;100546.66;5066948;28;1203;-87
2022/03/13 10:53:11;;;;;;;;;;;;;;;6.34;36.03;100541.66;5084614;28;1520;-86
2022/03/13 10:55:36;;;;;;;;;;;;;;;6.26;36.21;100542.09;5087562;28;1552;-86
2022/03/13 10:58:01;;;;;;;;;;;;;;;6.33;35.61;100539.19;5067935;28;1035;-85
2022/03/13 11:00:27;;;;;;;;;;;;;;;6.33;35.90;100548.19;5086446;28;1529;-85
2022/03/13 11:02:55;;;;;;;;;;;;;;;6.48;36.38;100550.25;5070062;28;1263;-84
2022/03/13 11:05:20;;;;;;;;;;;;;;;6.57;36.73;100547.94;5069557;28;1502;-84
2022/03/13 11:07:45;;;;;;;;;;;;;;;6.58;36.24;100544.97;5070103;28;1862;-85
2022/03/13 11:10:11;;;;;;;;;;;;;;;6.68;35.87;100544.25;5069138;28;837;-83
2022/03/13 11:12:39;;;;;;;;;;;;;;;6.89;36.21;100535.25;5071345;28;1318;-84
2022/03/13 11:15:06;;;;;;;;;;;;;;;6.92;35.78;100533.94;5069165;28;1256;-84
2022/03/13 11:17:33;;;;;;;;;;;;;;;6.76;36.65;100535.66;5074247;28;1521;-84
2022/03/13 11:19:58;;;;;;;;;;;;;;;6.70;36.01;100533.97;5071007;28;1295;-85
2022/03/13 11:22:24;;;;;;;;;;;;;;;6.89;35.68;100523.56;5072427;28;1363;-85
2022/03/13 11:24:54;;;;;;;;;;;;;;;7.01;34.59;100529.66;5072586;28;1502;-86
2022/03/13 11:27:20;;;;;;;;;;;;;;;7.05;34.38;100533.53;5055159;28;1953;-85
2022/03/13 11:29:46;;;;;;;;;;;;;;;7.13;35.10;100531.19;5054010;28;1436;-85
2022/03/13 11:32:31;;;;;;;;;;;;;;;7.07;35.02;100526.75;5054024;28;1308;-83
2022/03/13 11:35:12;;;;;;;;;;;;;;;7.12;34.59;100531.44;5054524;28;1463;-84
2022/03/13 11:37:37;;;;;;;;;;;;;;;7.22;35.34;100526.91;5061111;28;1362;-84
2022/03/13 11:40:04;;;;;;;;;;;;;;;7.08;34.91;100524.84;5082468;28;1337;-85
2022/03/13 11:42:44;;;;;;;;;;;;;;;7.11;35.81;100519.72;5059741;28;1376;-85
2022/03/13 11:45:27;;;;;;;;;;;;;;;7.13;35.88;100519.47;5065003;28;1341;-84
2022/03/13 11:47:52;;;;;;;;;;;;;;;7.35;34.19;100505.78;5064528;28;1878;-84
2022/03/13 11:50:17;;;;;;;;;;;;;;;7.48;35.14;100511.63;5059181;28;1450;-84
2022/03/13 11:52:42;;;;;;;;;;;;;;;7.71;34.50;100509.59;5052784;28;1235;-86
2022/03/13 11:55:09;;;;;;;;;;;;;;;7.60;34.58;100500.53;5062328;28;1409;-83
2022/03/13 11:57:42;;;;;;;;;;;;;;;7.62;34.56;100501.09;5064784;28;1223;-85
2022/03/13 12:00:10;;;;;;;;;;;;;;;7.82;35.19;100490.34;5084507;28;911;-84
2022/03/13 12:02:41;;;;;;;;;;;;;;;7.90;34.73;100489.03;5084242;28;1579;-82
2022/03/13 12:05:25;;;;;;;;;;;;;;;7.94;35.32;100495.59;5084850;28;1232;-84
2022/03/13 12:07:54;;;;;;;;;;;;;;;8.14;33.91;100493.00;5084497;28;1961;-84
2022/03/13 12:10:30;;;;;;;;;;;;;;;8.11;34.25;100492.69;5064629;28;1301;-84
2022/03/13 12:13:05;;;;;;;;;;;;;;;8.11;34.59;100490.78;5084157;28;853;-84
2022/03/13 12:15:30;;;;;;;;;;;;;;;8.47;32.45;100483.63;5065262;28;1205;-84
2022/03/13 12:17:57;;;;;;;;;;;;;;;8.81;31.38;100480.47;5084413;28;802;-84
2022/03/13 12:20:28;;;;;;;;;;;;;;;9.13;31.28;100472.06;5082653;28;1530;-83
2022/03/13 12:22:54;;;;;;;;;;;;;;;8.93;33.85;100475.59;5084022;28;1394;-83
2022/03/13 12:25:23;;;;;;;;;;;;;;;8.89;34.07;100471.75;5064898;28;1318;-84
2022/03/13 12:27:48;;;;;;;;;;;;;;;8.92;34.29;100469.31;5065770;28;1889;-84
2022/03/13 12:30:22;;;;;;;;;;;;;;;8.98;33.53;100462.75;5065505;28;1414;-84
2022/03/13 12:32:47;;;;;;;;;;;;;;;8.99;34.38;100460.84;5065365;28;1429;-84
2022/03/13 12:35:12;;;;;;;;;;;;;;;9.06;34.23;100464.13;5064973;28;1242;-83
2022/03/13 12:37:37;;;;;;;;;;;;;;;9.13;34.33;100464.69;5064635;28;1522;-84
2022/03/13 12:40:05;;;;;;;;;;;;;;;9.24;34.23;100460.06;5085250;28;781;-84
2022/03/13 12:42:34;;;;;;;;;;;;;;;9.29;34.02;100462.78;5066053;28;1445;-84
2022/03/13 12:45:00;;;;;;;;;;;;;;;9.33;32.40;100455.69;5084612;28;1300;-84
2022/03/13 12:47:29;;;;;;;;;;;;;;;9.58;32.92;100446.66;5084324;28;1965;-83